Time;durP1;ratioP1;P1;durP2;ratioP2;P2;SDS_P1;SDS_P2;PMS_P1;PMS_P2;Temp;Humidity;BMP_temperature;BMP_pressure;BME280_temperature;BME280_humidity;BME280_pressure;Samples;Min_cycle;Max_cycle;Signal;HPM_P1;HPM_P2
2021/12/12 00:02:20;;;;;;;37.65;18.73;;;;;;;;;;5079286;27;89995;-72
2021/12/12 00:04:48;;;;;;;39.30;17.30;;;;;;;;;;5079047;27;89168;-73
2021/12/12 00:07:20;;;;;;;40.80;18.83;;;;;;;;;;5082175;27;90423;-72
2021/12/12 00:09:49;;;;;;;34.72;18.80;;;;;;;;;;5079113;27;88962;-72
2021/12/12 00:12:23;;;;;;;36.63;17.40;;;;;;;;;;5080204;27;89400;-71
2021/12/12 00:14:51;;;;;;;42.20;17.73;;;;;;;;;;5082506;27;89824;-72
2021/12/12 00:17:18;;;;;;;36.67;18.13;;;;;;;;;;5082203;27;90334;-72
2021/12/12 00:19:44;;;;;;;37.85;16.98;;;;;;;;;;5082295;27;89656;-72
2021/12/12 00:22:13;;;;;;;34.63;17.75;;;;;;;;;;5082609;27;89966;-72
2021/12/12 00:24:40;;;;;;;46.85;17.52;;;;;;;;;;5082673;27;88976;-72
2021/12/12 00:27:07;;;;;;;36.40;17.10;;;;;;;;;;5082472;27;88755;-72
2021/12/12 00:29:34;;;;;;;38.28;18.27;;;;;;;;;;5085531;27;89847;-72
2021/12/12 00:32:04;;;;;;;41.88;17.23;;;;;;;;;;5081999;27;90434;-73
2021/12/12 00:34:32;;;;;;;28.40;16.10;;;;;;;;;;5082625;27;89837;-72
2021/12/12 00:36:58;;;;;;;43.03;17.15;;;;;;;;;;5082539;27;88819;-71
2021/12/12 00:39:28;;;;;;;39.75;16.20;;;;;;;;;;5082386;27;89319;-72
2021/12/12 00:42:06;;;;;;;35.78;15.60;;;;;;;;;;5063959;27;89043;-71
2021/12/12 00:44:36;;;;;;;35.67;16.20;;;;;;;;;;5081891;27;89043;-72
2021/12/12 00:47:04;;;;;;;37.72;16.10;;;;;;;;;;5082100;27;89912;-71
2021/12/12 00:49:31;;;;;;;31.90;15.80;;;;;;;;;;5085223;27;90138;-70
2021/12/12 00:51:57;;;;;;;36.85;15.68;;;;;;;;;;5082101;27;90269;-70
2021/12/12 00:54:30;;;;;;;31.88;15.45;;;;;;;;;;5081927;27;90118;-70
2021/12/12 00:57:01;;;;;;;34.08;14.73;;;;;;;;;;5081745;27;89192;-71
2021/12/12 00:59:28;;;;;;;32.17;14.13;;;;;;;;;;5082271;27;90316;-71
2021/12/12 01:01:55;;;;;;;30.67;13.70;;;;;;;;;;5081941;27;89855;-71
2021/12/12 01:04:24;;;;;;;44.17;15.20;;;;;;;;;;5081961;27;89348;-71
2021/12/12 01:06:51;;;;;;;31.35;14.02;;;;;;;;;;5081634;27;90234;-71
2021/12/12 01:09:20;;;;;;;31.98;14.75;;;;;;;;;;5081620;27;89064;-71
2021/12/12 01:11:48;;;;;;;31.23;14.00;;;;;;;;;;5084412;27;89147;-71
2021/12/12 01:14:16;;;;;;;29.95;13.52;;;;;;;;;;5081733;27;89760;-71
2021/12/12 01:16:45;;;;;;;35.60;14.30;;;;;;;;;;5081738;27;88927;-71
2021/12/12 01:19:32;;;;;;;33.75;13.50;;;;;;;;;;5081658;27;90491;-71
2021/12/12 01:22:06;;;;;;;27.13;11.95;;;;;;;;;;5081404;27;89075;-72
2021/12/12 01:24:37;;;;;;;34.50;12.93;;;;;;;;;;5081691;27;88903;-71
2021/12/12 01:27:05;;;;;;;34.65;12.63;;;;;;;;;;5081503;27;90277;-71
2021/12/12 01:29:32;;;;;;;27.08;11.77;;;;;;;;;;5081396;27;90116;-71
2021/12/12 01:32:00;;;;;;;25.60;12.10;;;;;;;;;;5081394;27;89993;-70
2021/12/12 01:34:29;;;;;;;36.92;12.80;;;;;;;;;;5084360;27;90524;-72
2021/12/12 01:39:35;;;;;;;35.30;12.57;;;;;;;;;;5081651;27;89897;-71
2021/12/12 01:42:05;;;;;;;33.45;11.75;;;;;;;;;;5081166;27;89871;-71
2021/12/12 01:44:44;;;;;;;30.45;12.18;;;;;;;;;;5081295;27;89090;-71
2021/12/12 01:47:16;;;;;;;28.85;11.80;;;;;;;;;;5080965;27;90691;-72
2021/12/12 01:49:45;;;;;;;33.65;11.65;;;;;;;;;;5081697;27;89941;-72
2021/12/12 01:52:16;;;;;;;25.63;12.45;;;;;;;;;;5081148;27;88958;-71
2021/12/12 01:54:45;;;;;;;35.55;11.90;;;;;;;;;;5081251;27;90322;-71
2021/12/12 01:57:18;;;;;;;30.10;12.10;;;;;;;;;;5083855;27;89904;-72
2021/12/12 01:59:45;;;;;;;25.85;11.00;;;;;;;;;;5080584;27;90327;-71
2021/12/12 02:02:15;;;;;;;32.72;12.57;;;;;;;;;;5081063;27;90203;-71
2021/12/12 02:04:43;;;;;;;30.73;11.68;;;;;;;;;;5080992;27;89204;-71
2021/12/12 02:07:12;;;;;;;32.92;12.00;;;;;;;;;;5080780;27;89885;-71
2021/12/12 02:09:39;;;;;;;34.80;11.85;;;;;;;;;;5080385;27;89824;-71
2021/12/12 02:12:06;;;;;;;31.80;11.40;;;;;;;;;;5080488;27;89531;-72
2021/12/12 02:14:35;;;;;;;27.33;11.48;;;;;;;;;;5081239;27;90500;-72
2021/12/12 02:17:04;;;;;;;26.25;11.90;;;;;;;;;;5080778;27;88894;-71
2021/12/12 02:20:22;;;;;;;35.05;12.07;;;;;;;;;;5083740;27;89430;-71
2021/12/12 02:36:12;;;;;;;32.78;12.90;;;;;;;;;;5059331;27;89832;-71
2021/12/12 02:38:39;;;;;;;35.70;13.38;;;;;;;;;;5059879;27;89535;-71
2021/12/12 02:41:08;;;;;;;38.83;13.45;;;;;;;;;;5060318;27;88836;-71
2021/12/12 02:43:37;;;;;;;31.80;13.70;;;;;;;;;;5062490;27;90523;-72
2021/12/12 02:46:04;;;;;;;39.30;16.10;;;;;;;;;;5059923;27;89233;-71
2021/12/12 02:48:33;;;;;;;39.13;14.80;;;;;;;;;;5059644;27;90697;-71
2021/12/12 02:51:02;;;;;;;34.22;14.80;;;;;;;;;;5059889;27;89707;-71
2021/12/12 02:53:30;;;;;;;39.72;14.40;;;;;;;;;;5059641;27;89729;-71
2021/12/12 02:56:02;;;;;;;31.67;14.80;;;;;;;;;;5059483;27;90482;-72
2021/12/12 02:58:29;;;;;;;32.00;14.43;;;;;;;;;;5059533;27;90280;-71
2021/12/12 03:00:55;;;;;;;36.40;14.88;;;;;;;;;;5059810;27;89105;-72
2021/12/12 03:03:24;;;;;;;36.22;14.77;;;;;;;;;;5062505;27;90349;-71
2021/12/12 03:05:51;;;;;;;31.63;15.10;;;;;;;;;;5059937;27;88915;-72
2021/12/12 03:08:17;;;;;;;31.10;14.48;;;;;;;;;;5059344;27;90588;-73
2021/12/12 03:10:45;;;;;;;34.55;15.18;;;;;;;;;;5059342;27;89696;-73
2021/12/12 03:13:11;;;;;;;37.47;15.98;;;;;;;;;;5059221;27;89943;-73
2021/12/12 03:15:39;;;;;;;41.53;15.25;;;;;;;;;;5059362;27;89760;-72
2021/12/12 03:18:07;;;;;;;45.65;17.08;;;;;;;;;;5059446;27;89910;-72
2021/12/12 03:20:36;;;;;;;33.97;14.98;;;;;;;;;;5059269;27;88907;-72
2021/12/12 03:23:08;;;;;;;26.00;14.80;;;;;;;;;;5058852;27;90381;-73
2021/12/12 03:25:36;;;;;;;23.42;14.85;;;;;;;;;;5062321;27;89651;-72
2021/12/12 03:28:04;;;;;;;32.58;15.65;;;;;;;;;;5059296;27;89942;-72
2021/12/12 03:30:31;;;;;;;34.22;16.05;;;;;;;;;;5059519;27;90398;-72
2021/12/12 03:32:57;;;;;;;31.90;17.00;;;;;;;;;;5059439;27;88872;-72
2021/12/12 03:35:28;;;;;;;33.17;16.63;;;;;;;;;;5059253;27;89426;-73
2021/12/12 03:37:55;;;;;;;27.10;15.73;;;;;;;;;;5058403;27;89270;-73
2021/12/12 03:40:24;;;;;;;38.15;17.33;;;;;;;;;;5058935;27;89171;-72
2021/12/12 03:42:52;;;;;;;29.98;16.48;;;;;;;;;;5059287;27;90201;-72
2021/12/12 03:45:20;;;;;;;29.67;16.65;;;;;;;;;;5059249;27;89810;-72
2021/12/12 03:47:48;;;;;;;26.20;16.63;;;;;;;;;;5065295;27;89283;-72
2021/12/12 03:50:20;;;;;;;36.63;18.02;;;;;;;;;;5062310;27;90256;-73
2021/12/12 03:52:47;;;;;;;28.65;16.95;;;;;;;;;;5062643;27;89293;-72
2021/12/12 03:55:14;;;;;;;30.05;16.77;;;;;;;;;;5062881;27;89666;-73
2021/12/12 03:57:41;;;;;;;29.80;16.95;;;;;;;;;;5062497;27;90975;-72
2021/12/12 04:00:11;;;;;;;32.63;18.52;;;;;;;;;;5062732;27;89328;-72
2021/12/12 04:02:37;;;;;;;35.17;19.38;;;;;;;;;;5062086;27;90422;-72
2021/12/12 04:05:04;;;;;;;41.00;20.67;;;;;;;;;;5062136;27;89643;-72
2021/12/12 04:07:32;;;;;;;39.63;20.67;;;;;;;;;;5062067;27;88994;-72
2021/12/12 04:09:59;;;;;;;33.53;20.67;;;;;;;;;;5064902;27;90323;-72
2021/12/12 04:12:26;;;;;;;41.65;21.83;;;;;;;;;;5062405;27;89224;-72
2021/12/12 04:14:53;;;;;;;40.38;21.52;;;;;;;;;;5062314;27;90367;-72
2021/12/12 04:17:21;;;;;;;34.42;21.15;;;;;;;;;;5061410;27;90045;-72
2021/12/12 04:19:49;;;;;;;39.58;21.33;;;;;;;;;;5062518;27;88865;-72
2021/12/12 04:22:16;;;;;;;48.88;22.73;;;;;;;;;;5062200;27;90339;-72
2021/12/12 04:24:44;;;;;;;40.83;23.33;;;;;;;;;;5062024;27;90078;-72
2021/12/12 04:27:11;;;;;;;40.95;22.58;;;;;;;;;;5061744;27;89981;-72
2021/12/12 04:29:42;;;;;;;43.67;23.77;;;;;;;;;;5062026;27;89403;-72
2021/12/12 04:32:13;;;;;;;38.88;23.65;;;;;;;;;;5064758;27;89778;-72
2021/12/12 04:34:41;;;;;;;52.15;24.83;;;;;;;;;;5062140;27;90225;-73
2021/12/12 04:37:08;;;;;;;48.08;24.92;;;;;;;;;;5061906;27;90144;-73
2021/12/12 04:39:37;;;;;;;45.65;24.27;;;;;;;;;;5043580;27;90301;-72
2021/12/12 04:42:07;;;;;;;46.85;24.42;;;;;;;;;;5062156;27;89749;-73
2021/12/12 04:44:36;;;;;;;44.92;26.13;;;;;;;;;;5061595;27;89737;-72
2021/12/12 04:49:55;;;;;;;39.13;25.30;;;;;;;;;;5061791;27;90078;-72
2021/12/12 04:52:33;;;;;;;41.60;24.88;;;;;;;;;;5061327;27;89751;-72
2021/12/12 04:55:03;;;;;;;48.25;25.30;;;;;;;;;;5064748;27;88888;-73
2021/12/12 04:57:34;;;;;;;42.05;25.45;;;;;;;;;;5043532;27;89007;-73
2021/12/12 05:00:04;;;;;;;46.42;26.80;;;;;;;;;;5061475;27;89462;-72
2021/12/12 05:02:40;;;;;;;43.50;24.75;;;;;;;;;;5061594;27;90233;-72
2021/12/12 05:05:13;;;;;;;39.00;25.73;;;;;;;;;;5061388;27;89852;-72
2021/12/12 05:07:53;;;;;;;48.92;26.05;;;;;;;;;;5061225;27;89009;-73
2021/12/12 05:10:38;;;;;;;43.55;26.90;;;;;;;;;;5061112;27;90295;-73
2021/12/12 05:13:34;;;;;;;42.45;25.52;;;;;;;;;;5061480;27;89312;-72
2021/12/12 05:16:05;;;;;;;40.90;23.85;;;;;;;;;;5046616;27;89391;-72
2021/12/12 05:18:36;;;;;;;41.10;25.90;;;;;;;;;;5060895;27;90113;-72
2021/12/12 05:21:08;;;;;;;47.60;26.07;;;;;;;;;;5061040;27;89256;-72
2021/12/12 05:23:35;;;;;;;42.88;25.15;;;;;;;;;;5061259;27;90284;-72
2021/12/12 05:26:09;;;;;;;51.22;28.05;;;;;;;;;;5060984;27;90183;-73
2021/12/12 05:28:37;;;;;;;40.22;25.77;;;;;;;;;;5060940;27;89459;-73
2021/12/12 05:31:06;;;;;;;44.90;27.40;;;;;;;;;;5061208;27;89328;-73
2021/12/12 05:33:34;;;;;;;43.72;24.90;;;;;;;;;;5061000;27;89335;-73
2021/12/12 05:36:00;;;;;;;49.00;27.15;;;;;;;;;;5061358;27;89056;-73
2021/12/12 05:38:27;;;;;;;49.30;26.58;;;;;;;;;;5063820;27;90344;-72
2021/12/12 05:40:53;;;;;;;55.10;28.13;;;;;;;;;;5060374;27;88970;-73
2021/12/12 05:43:20;;;;;;;59.40;29.23;;;;;;;;;;5060585;27;90402;-73
2021/12/12 05:45:47;;;;;;;58.78;29.08;;;;;;;;;;5060820;27;89757;-72
2021/12/12 05:48:14;;;;;;;54.65;28.40;;;;;;;;;;5060690;27;89523;-73
2021/12/12 05:50:41;;;;;;;58.90;29.17;;;;;;;;;;5060809;27;90453;-72
2021/12/12 05:53:08;;;;;;;65.57;30.20;;;;;;;;;;5060515;27;89847;-73
2021/12/12 05:55:36;;;;;;;62.47;31.60;;;;;;;;;;5060405;27;89041;-73
2021/12/12 05:58:04;;;;;;;59.65;28.92;;;;;;;;;;5060674;27;90342;-73
2021/12/12 06:00:33;;;;;;;62.97;29.55;;;;;;;;;;5063952;27;89274;-73
2021/12/12 06:02:59;;;;;;;64.82;30.77;;;;;;;;;;5060454;27;90423;-72
2021/12/12 06:05:26;;;;;;;61.90;30.75;;;;;;;;;;5060507;27;89551;-72
2021/12/12 06:07:54;;;;;;;58.80;29.35;;;;;;;;;;5059613;27;90400;-73
2021/12/12 06:10:21;;;;;;;64.72;32.63;;;;;;;;;;5059140;27;90224;-72
2021/12/12 06:12:48;;;;;;;70.55;32.40;;;;;;;;;;5060385;27;89941;-72
2021/12/12 06:15:16;;;;;;;58.63;30.20;;;;;;;;;;5060430;27;90001;-72
2021/12/12 06:17:43;;;;;;;66.70;31.88;;;;;;;;;;5060311;27;89315;-73
2021/12/12 06:20:10;;;;;;;65.18;32.40;;;;;;;;;;5060213;27;89872;-73
2021/12/12 06:22:37;;;;;;;71.30;32.05;;;;;;;;;;5062652;27;89240;-72
2021/12/12 06:25:04;;;;;;;68.72;32.85;;;;;;;;;;5060508;27;89738;-72
2021/12/12 06:27:31;;;;;;;71.88;34.00;;;;;;;;;;5060150;27;88877;-72
2021/12/12 06:29:58;;;;;;;92.38;34.92;;;;;;;;;;5060145;27;90855;-73
2021/12/12 06:32:25;;;;;;;87.50;34.75;;;;;;;;;;5059718;27;89857;-72
2021/12/12 06:34:54;;;;;;;93.47;35.78;;;;;;;;;;5060463;27;88871;-72
2021/12/12 06:37:21;;;;;;;78.93;34.83;;;;;;;;;;5041621;27;91065;-72
2021/12/12 06:39:48;;;;;;;90.20;36.00;;;;;;;;;;5059636;27;90198;-72
2021/12/12 06:42:15;;;;;;;89.75;36.17;;;;;;;;;;5060031;27;89516;-72
2021/12/12 06:44:42;;;;;;;87.07;34.60;;;;;;;;;;5062805;27;90442;-72
2021/12/12 06:47:08;;;;;;;71.65;29.65;;;;;;;;;;5041861;27;90655;-72
2021/12/12 06:49:36;;;;;;;75.90;32.28;;;;;;;;;;5059717;27;90111;-73
2021/12/12 06:52:04;;;;;;;91.85;35.30;;;;;;;;;;5059559;27;89676;-73
2021/12/12 06:54:31;;;;;;;86.82;34.47;;;;;;;;;;5059662;27;89110;-73
2021/12/12 06:56:59;;;;;;;102.93;36.72;;;;;;;;;;5059364;27;89864;-72
2021/12/12 06:59:27;;;;;;;104.55;37.92;;;;;;;;;;5059524;27;90193;-72
2021/12/12 07:01:55;;;;;;;95.38;36.72;;;;;;;;;;5059734;27;89084;-72
2021/12/12 07:04:22;;;;;;;106.65;38.00;;;;;;;;;;5059133;27;90229;-72
2021/12/12 07:06:52;;;;;;;111.68;37.45;;;;;;;;;;5062532;27;89960;-72
2021/12/12 07:09:19;;;;;;;94.55;37.75;;;;;;;;;;5059341;27;90408;-72
2021/12/12 07:11:46;;;;;;;102.95;37.00;;;;;;;;;;5059618;27;90166;-72
2021/12/12 07:14:13;;;;;;;114.55;37.17;;;;;;;;;;5059849;27;88859;-72
2021/12/12 07:16:41;;;;;;;112.95;39.10;;;;;;;;;;5058951;27;92366;-73
2021/12/12 07:19:07;;;;;;;122.72;41.40;;;;;;;;;;5058943;27;89684;-72
2021/12/12 07:21:34;;;;;;;136.60;43.08;;;;;;;;;;5058765;27;90279;-72
2021/12/12 07:24:02;;;;;;;130.93;42.70;;;;;;;;;;5059263;27;90166;-72
2021/12/12 07:26:29;;;;;;;166.95;45.92;;;;;;;;;;5062496;27;89932;-72
2021/12/12 07:28:56;;;;;;;167.95;45.92;;;;;;;;;;5059109;27;90481;-72
2021/12/12 07:31:24;;;;;;;148.65;44.83;;;;;;;;;;5058651;27;89861;-72
2021/12/12 07:33:53;;;;;;;174.77;47.97;;;;;;;;;;5059327;27;89240;-72
2021/12/12 07:36:20;;;;;;;199.52;49.58;;;;;;;;;;5059178;27;90502;-72
2021/12/12 07:38:48;;;;;;;158.18;45.83;;;;;;;;;;5059193;27;90354;-72
2021/12/12 07:41:17;;;;;;;191.40;52.58;;;;;;;;;;5059143;27;89113;-73
2021/12/12 07:43:44;;;;;;;182.15;49.67;;;;;;;;;;5059145;27;90400;-74
2021/12/12 07:46:11;;;;;;;134.93;44.53;;;;;;;;;;5058428;27;89856;-78
2021/12/12 07:48:39;;;;;;;160.90;47.72;;;;;;;;;;5062201;27;88800;-78
2021/12/12 07:51:07;;;;;;;137.15;44.33;;;;;;;;;;5041346;27;89373;-78
2021/12/12 07:53:33;;;;;;;152.38;46.50;;;;;;;;;;5059093;27;89265;-74
2021/12/12 07:56:00;;;;;;;162.18;48.08;;;;;;;;;;5058791;27;90237;-73
2021/12/12 07:58:26;;;;;;;169.13;50.03;;;;;;;;;;5058370;27;89859;-73
2021/12/12 08:00:53;;;;;;;178.48;47.03;;;;;;;;;;5058839;27;89597;-73
2021/12/12 08:03:21;;;;;;;174.05;47.67;;;;;;;;;;5058966;27;90192;-73
2021/12/12 08:05:48;;;;;;;161.00;48.47;;;;;;;;;;5058443;27;90282;-73
2021/12/12 08:08:15;;;;;;;142.73;44.25;;;;;;;;;;5058344;27;89323;-72
2021/12/12 08:10:43;;;;;;;164.80;45.50;;;;;;;;;;5061322;27;89933;-73
2021/12/12 08:13:10;;;;;;;160.02;47.88;;;;;;;;;;5058285;27;89158;-73
2021/12/12 08:15:36;;;;;;;159.02;45.97;;;;;;;;;;5058692;27;90660;-71
2021/12/12 08:18:04;;;;;;;154.80;45.40;;;;;;;;;;5058550;27;89946;-73
2021/12/12 08:20:32;;;;;;;148.20;44.00;;;;;;;;;;5058577;27;88877;-72
2021/12/12 08:22:58;;;;;;;155.10;44.72;;;;;;;;;;5058055;27;90484;-73
2021/12/12 08:25:25;;;;;;;166.85;45.33;;;;;;;;;;5057650;27;90012;-73
2021/12/12 08:27:53;;;;;;;159.82;44.97;;;;;;;;;;5058434;27;88807;-73
2021/12/12 08:30:20;;;;;;;153.90;45.80;;;;;;;;;;5040161;27;93156;-73
2021/12/12 08:32:47;;;;;;;140.75;41.88;;;;;;;;;;5061569;27;89977;-73
2021/12/12 08:35:15;;;;;;;158.68;45.03;;;;;;;;;;5061706;27;90623;-74
2021/12/12 08:37:42;;;;;;;163.45;43.72;;;;;;;;;;5061540;27;89090;-74
2021/12/12 08:40:10;;;;;;;142.80;42.38;;;;;;;;;;5061365;27;88960;-74
2021/12/12 08:42:37;;;;;;;163.10;43.53;;;;;;;;;;5061724;27;90420;-74
2021/12/12 08:45:05;;;;;;;175.23;46.15;;;;;;;;;;5061534;27;90118;-73
2021/12/12 08:47:33;;;;;;;170.10;45.05;;;;;;;;;;5061634;27;88972;-74
2021/12/12 08:49:59;;;;;;;168.57;45.95;;;;;;;;;;5061710;27;90610;-72
2021/12/12 08:52:31;;;;;;;155.63;42.83;;;;;;;;;;5061004;27;89884;-74
2021/12/12 08:54:58;;;;;;;;;;;;;;;;;;5047027;27;89183;-73
2021/12/12 08:57:46;;;;;;;154.27;40.88;;;;;;;;;;5061668;27;118427;-72
2021/12/12 09:00:34;;;;;;;126.10;38.22;;;;;;;;;;5061062;27;90201;-72
2021/12/12 09:03:01;;;;;;;108.00;35.08;;;;;;;;;;5061205;27;90049;-73
2021/12/12 09:05:33;;;;;;;120.60;37.63;;;;;;;;;;5061574;27;90021;-72
2021/12/12 09:08:18;;;;;;;135.82;39.92;;;;;;;;;;5061229;27;89200;-72
2021/12/12 09:10:47;;;;;;;124.68;36.70;;;;;;;;;;5061312;27;90553;-72
2021/12/12 09:13:26;;;;;;;121.72;38.40;;;;;;;;;;5061196;27;90222;-73
2021/12/12 09:16:13;;;;;;;142.23;41.60;;;;;;;;;;5061028;27;88919;-74
2021/12/12 09:18:43;;;;;;;113.07;35.67;;;;;;;;;;5063998;27;89158;-73
2021/12/12 09:21:14;;;;;;;123.25;35.75;;;;;;;;;;5061227;27;88837;-73
2021/12/12 09:23:45;;;;;;;113.47;35.90;;;;;;;;;;5060726;27;89270;-74
2021/12/12 09:26:13;;;;;;;98.32;32.85;;;;;;;;;;5060204;27;89966;-73
2021/12/12 09:28:59;;;;;;;129.85;38.15;;;;;;;;;;5060906;27;89446;-73
2021/12/12 09:31:27;;;;;;;136.15;37.88;;;;;;;;;;5060889;27;89910;-72
2021/12/12 09:33:56;;;;;;;135.52;37.20;;;;;;;;;;5060479;27;89662;-74
2021/12/12 09:36:31;;;;;;;125.13;38.80;;;;;;;;;;5060770;27;89373;-74
2021/12/12 09:39:01;;;;;;;138.95;39.33;;;;;;;;;;5063684;27;90433;-73
2021/12/12 09:41:42;;;;;;;142.23;40.22;;;;;;;;;;5060753;27;88875;-74
2021/12/12 09:44:08;;;;;;;129.30;39.40;;;;;;;;;;5060041;27;90423;-74
2021/12/12 09:46:56;;;;;;;131.63;39.45;;;;;;;;;;5042774;27;89235;-74
2021/12/12 09:52:54;;;;;;;119.25;38.90;;;;;;;;;;5060037;27;90412;-75
2021/12/12 09:55:25;;;;;;;110.28;37.15;;;;;;;;;;5060260;27;90304;-74
2021/12/12 09:57:53;;;;;;;110.93;36.42;;;;;;;;;;5060729;27;88999;-74
2021/12/12 10:00:26;;;;;;;94.47;33.40;;;;;;;;;;5060471;27;89583;-75
2021/12/12 10:03:08;;;;;;;99.80;34.05;;;;;;;;;;5063146;27;90122;-74
2021/12/12 10:05:50;;;;;;;83.07;31.70;;;;;;;;;;5060353;27;90375;-76
2021/12/12 10:08:24;;;;;;;82.55;31.05;;;;;;;;;;5059784;27;89851;-74
2021/12/12 10:10:56;;;;;;;82.32;30.30;;;;;;;;;;5042920;27;88881;-74
2021/12/12 10:13:26;;;;;;;66.85;27.30;;;;;;;;;;5059948;27;89344;-75
2021/12/12 10:15:56;;;;;;;66.05;27.98;;;;;;;;;;5060212;27;89922;-75
2021/12/12 10:18:41;;;;;;;61.70;27.73;;;;;;;;;;5060075;27;89979;-75
2021/12/12 10:21:10;;;;;;;50.00;25.70;;;;;;;;;;5060162;27;90834;-73
2021/12/12 10:24:02;;;;;;;47.85;23.77;;;;;;;;;;5060209;27;90118;-75
2021/12/12 10:26:32;;;;;;;56.80;26.33;;;;;;;;;;5063111;27;89305;-75
2021/12/12 10:29:21;;;;;;;57.95;27.27;;;;;;;;;;5059877;27;89617;-74
2021/12/12 10:31:50;;;;;;;45.25;23.35;;;;;;;;;;5060062;27;89168;-75
2021/12/12 10:34:23;;;;;;;52.30;24.65;;;;;;;;;;5059529;27;90391;-74
2021/12/12 10:36:51;;;;;;;53.50;25.70;;;;;;;;;;5060220;27;88921;-74
2021/12/12 10:39:28;;;;;;;52.67;23.40;;;;;;;;;;5059878;27;89500;-75
2021/12/12 10:41:57;;;;;;;55.92;24.88;;;;;;;;;;5067549;27;90855;-75
2021/12/12 10:44:32;;;;;;;53.92;24.63;;;;;;;;;;5094400;27;90296;-76
2021/12/12 10:47:08;;;;;;;47.10;23.45;;;;;;;;;;5100722;27;88848;-77
2021/12/12 10:49:40;;;;;;;49.67;24.08;;;;;;;;;;5104012;27;90291;-75
2021/12/12 10:52:09;;;;;;;45.28;22.85;;;;;;;;;;5100827;27;89229;-75
2021/12/12 10:54:35;;;;;;;41.72;22.33;;;;;;;;;;5100655;27;89826;-77
2021/12/12 10:57:07;;;;;;;39.13;22.55;;;;;;;;;;5099812;27;89829;-77
2021/12/12 10:59:41;;;;;;;41.30;22.27;;;;;;;;;;5100467;27;89317;-76
2021/12/12 11:02:10;;;;;;;49.55;23.75;;;;;;;;;;5100980;27;90757;-75
2021/12/12 11:04:40;;;;;;;43.97;23.10;;;;;;;;;;5100770;27;90178;-75
2021/12/12 11:07:11;;;;;;;49.33;24.20;;;;;;;;;;5100340;27;89067;-74
2021/12/12 11:09:38;;;;;;;43.70;23.77;;;;;;;;;;5099576;27;90156;-74
2021/12/12 11:12:22;;;;;;;58.38;25.63;;;;;;;;;;5103323;27;89739;-75
2021/12/12 11:14:57;;;;;;;48.53;23.77;;;;;;;;;;5100450;27;90390;-76
2021/12/12 11:17:29;;;;;;;58.00;25.25;;;;;;;;;;5100497;27;89528;-74
2021/12/12 11:19:59;;;;;;;59.00;25.20;;;;;;;;;;5100275;27;89402;-74
2021/12/12 11:22:29;;;;;;;58.72;25.80;;;;;;;;;;5100402;27;90247;-74
2021/12/12 11:25:00;;;;;;;49.20;23.17;;;;;;;;;;5100362;27;90023;-74
2021/12/12 11:27:34;;;;;;;55.92;24.65;;;;;;;;;;5061299;27;89113;-74
2021/12/12 11:30:06;;;;;;;57.08;24.50;;;;;;;;;;5059198;27;90307;-73
2021/12/12 11:32:35;;;;;;;54.88;24.48;;;;;;;;;;5062160;27;89809;-77
2021/12/12 11:35:04;;;;;;;48.28;23.58;;;;;;;;;;5058974;27;89630;-71
2021/12/12 11:37:30;;;;;;;45.97;23.17;;;;;;;;;;5059567;27;89986;-76
2021/12/12 11:40:02;;;;;;;56.95;24.10;;;;;;;;;;5059105;27;89180;-74
2021/12/12 11:42:28;;;;;;;;;;;;;;;;;;5059569;27;90375;-74
2021/12/12 11:45:08;;;;;;;44.55;22.08;;;;;;;;;;5059286;27;117956;-74
2021/12/12 11:47:54;;;;;;;41.60;20.48;;;;;;;;;;5059329;27;89043;-74
2021/12/12 11:50:23;;;;;;;42.63;21.45;;;;;;;;;;5059177;27;90358;-75
2021/12/12 11:53:03;;;;;;;47.42;22.50;;;;;;;;;;5059268;27;89734;-74
2021/12/12 11:55:34;;;;;;;41.97;21.63;;;;;;;;;;5061786;27;89131;-75
2021/12/12 11:58:03;;;;;;;45.25;21.98;;;;;;;;;;5059008;27;89084;-74
2021/12/12 12:00:33;;;;;;;46.25;22.27;;;;;;;;;;5058562;27;90072;-75
2021/12/12 12:03:23;;;;;;;41.83;21.60;;;;;;;;;;5058867;27;89691;-75
2021/12/12 12:05:49;;;;;;;39.90;20.63;;;;;;;;;;5058886;27;89908;-75
2021/12/12 12:08:30;;;;;;;42.65;21.20;;;;;;;;;;5059520;27;89176;-75
2021/12/12 12:11:16;;;;;;;46.58;20.85;;;;;;;;;;5062461;27;90293;-84
2021/12/12 12:13:52;;;;;;;43.72;21.05;;;;;;;;;;5062274;27;89919;-78
2021/12/12 12:16:18;;;;;;;45.20;22.10;;;;;;;;;;5061640;27;89164;-75
2021/12/12 12:19:04;;;;;;;37.70;21.15;;;;;;;;;;5080244;27;90593;-74
2021/12/12 12:21:49;;;;;;;43.67;21.25;;;;;;;;;;5082574;27;88848;-76
2021/12/12 12:24:25;;;;;;;36.83;20.48;;;;;;;;;;5082317;27;90215;-76
2021/12/12 12:27:03;;;;;;;51.95;22.33;;;;;;;;;;5081793;27;90198;-76
2021/12/12 12:29:33;;;;;;;42.00;21.27;;;;;;;;;;5082565;27;89092;-76
2021/12/12 12:32:18;;;;;;;46.88;22.83;;;;;;;;;;5082456;27;90433;-76
2021/12/12 12:34:50;;;;;;;46.58;21.98;;;;;;;;;;5082008;27;89834;-76
2021/12/12 12:37:38;;;;;;;49.25;20.92;;;;;;;;;;5082074;27;90177;-76
2021/12/12 12:40:23;;;;;;;44.88;21.38;;;;;;;;;;5082543;27;89642;-76
2021/12/12 12:43:09;;;;;;;43.42;21.40;;;;;;;;;;5067123;27;89123;-76
2021/12/12 12:45:55;;;;;;;38.00;19.95;;;;;;;;;;5082195;27;89392;-76
2021/12/12 12:48:41;;;;;;;47.65;21.55;;;;;;;;;;5081475;27;90323;-76
2021/12/12 12:51:11;;;;;;;39.90;21.58;;;;;;;;;;5082178;27;88818;-78
2021/12/12 12:53:56;;;;;;;44.63;23.73;;;;;;;;;;5081805;27;90410;-76
2021/12/12 12:56:42;;;;;;;37.25;21.95;;;;;;;;;;5082117;27;89239;-75
2021/12/12 12:59:36;;;;;;;37.60;21.63;;;;;;;;;;5063668;27;91301;-77
2021/12/12 13:02:12;;;;;;;42.72;23.08;;;;;;;;;;5081272;27;90249;-74
2021/12/12 13:04:56;;;;;;;44.28;23.27;;;;;;;;;;5089454;27;89689;-74
2021/12/12 13:07:41;;;;;;;50.70;24.77;;;;;;;;;;5105417;27;89184;-74
2021/12/12 13:10:09;;;;;;;51.45;25.10;;;;;;;;;;5102052;27;89741;-74
2021/12/12 13:12:59;;;;;;;41.83;22.92;;;;;;;;;;5102621;27;88836;-74
2021/12/12 13:15:37;;;;;;;44.83;24.08;;;;;;;;;;5102567;27;90383;-74
2021/12/12 13:18:07;;;;;;;43.03;23.58;;;;;;;;;;5102535;27;89593;-75
2021/12/12 13:20:51;;;;;;;40.25;23.48;;;;;;;;;;5101450;27;90056;-74
2021/12/12 13:23:22;;;;;;;43.85;23.83;;;;;;;;;;5101735;27;90427;-74
2021/12/12 13:25:59;;;;;;;40.50;23.38;;;;;;;;;;5102220;27;89599;-75
2021/12/12 13:28:32;;;;;;;51.72;24.55;;;;;;;;;;5102130;27;88806;-74
2021/12/12 13:31:01;;;;;;;39.60;23.30;;;;;;;;;;5105049;27;90693;-74
2021/12/12 13:33:39;;;;;;;39.40;23.00;;;;;;;;;;5101846;27;89842;-77
2021/12/12 13:36:08;;;;;;;48.58;23.42;;;;;;;;;;5102208;27;90311;-74
2021/12/12 13:38:43;;;;;;;39.40;22.00;;;;;;;;;;5102133;27;89697;-74
2021/12/12 13:41:21;;;;;;;42.95;22.85;;;;;;;;;;5101958;27;88854;-74
2021/12/12 13:44:07;;;;;;;40.92;22.25;;;;;;;;;;5101761;27;91114;-74
2021/12/12 13:46:33;;;;;;;37.60;21.52;;;;;;;;;;5101374;27;89907;-74
2021/12/12 13:49:29;;;;;;;37.00;21.67;;;;;;;;;;5101823;27;89539;-74
2021/12/12 13:52:06;;;;;;;35.90;21.23;;;;;;;;;;5064864;27;90015;-74
2021/12/12 13:54:51;;;;;;;37.70;21.45;;;;;;;;;;5100897;27;89038;-75
2021/12/12 13:57:33;;;;;;;36.88;20.83;;;;;;;;;;5101414;27;90413;-74
2021/12/12 14:00:14;;;;;;;43.67;24.15;;;;;;;;;;5101030;27;90430;-74
2021/12/12 14:02:42;;;;;;;39.17;20.30;;;;;;;;;;5079479;27;89329;-75
2021/12/12 14:05:20;;;;;;;34.53;20.45;;;;;;;;;;5100937;27;90300;-74
2021/12/12 14:07:53;;;;;;;30.60;18.52;;;;;;;;;;5101514;27;89975;-74
2021/12/12 14:10:22;;;;;;;38.08;20.20;;;;;;;;;;5100557;27;89097;-74
2021/12/12 14:12:50;;;;;;;33.00;19.67;;;;;;;;;;5101131;27;90319;-74
2021/12/12 14:15:18;;;;;;;39.42;20.48;;;;;;;;;;5085744;27;91650;-74
2021/12/12 14:17:55;;;;;;;37.85;19.52;;;;;;;;;;5101509;27;90366;-74
2021/12/12 14:20:25;;;;;;;37.03;18.23;;;;;;;;;;5083202;27;89836;-74
2021/12/12 14:22:52;;;;;;;37.55;19.67;;;;;;;;;;5082781;27;90061;-74
2021/12/12 14:25:21;;;;;;;44.05;21.45;;;;;;;;;;5101554;27;90217;-74
2021/12/12 14:27:51;;;;;;;35.10;18.88;;;;;;;;;;5101250;27;89831;-74
2021/12/12 14:30:18;;;;;;;37.67;19.38;;;;;;;;;;5101153;27;88779;-74
2021/12/12 14:33:05;;;;;;;34.33;18.23;;;;;;;;;;5100649;27;90260;-74
2021/12/12 14:35:37;;;;;;;36.83;19.42;;;;;;;;;;5100658;27;89439;-74
2021/12/12 14:38:04;;;;;;;34.50;18.83;;;;;;;;;;5103886;27;89461;-73
2021/12/12 14:40:33;;;;;;;34.95;18.35;;;;;;;;;;5101159;27;89646;-73
2021/12/12 14:43:06;;;;;;;42.90;19.45;;;;;;;;;;5101231;27;89273;-74
2021/12/12 14:45:37;;;;;;;40.33;20.13;;;;;;;;;;5100614;27;90519;-74
2021/12/12 14:48:13;;;;;;;41.70;20.98;;;;;;;;;;5100648;27;89639;-74
2021/12/12 14:50:47;;;;;;;48.53;21.45;;;;;;;;;;5100883;27;89424;-74
2021/12/12 14:53:16;;;;;;;53.65;22.50;;;;;;;;;;5101102;27;90484;-74
2021/12/12 14:55:54;;;;;;;40.17;19.75;;;;;;;;;;5101339;27;88988;-75
2021/12/12 14:58:27;;;;;;;40.45;19.95;;;;;;;;;;5100553;27;89157;-74
2021/12/12 15:00:58;;;;;;;43.08;20.95;;;;;;;;;;5104098;27;90296;-75
2021/12/12 15:03:27;;;;;;;46.67;20.25;;;;;;;;;;5100514;27;89904;-75